sensor_id;sensor_type;location;lat;lon;timestamp;P1;durP1;ratioP1;P2;durP2;ratioP2
48522;SDS011;34315;50.150;11.070;2023-03-31T00:02:19;5.18;;;1.65;;
48522;SDS011;34315;50.150;11.070;2023-03-31T00:07:22;6.75;;;1.63;;
48522;SDS011;34315;50.150;11.070;2023-03-31T00:12:24;9.80;;;2.80;;
48522;SDS011;34315;50.150;11.070;2023-03-31T00:17:25;5.65;;;1.33;;
48522;SDS011;34315;50.150;11.070;2023-03-31T00:22:26;4.70;;;1.73;;
48522;SDS011;34315;50.150;11.070;2023-03-31T00:27:27;5.90;;;1.40;;
48522;SDS011;34315;50.150;11.070;2023-03-31T00:32:28;6.43;;;1.63;;
48522;SDS011;34315;50.150;11.070;2023-03-31T00:37:30;5.78;;;1.55;;
48522;SDS011;34315;50.150;11.070;2023-03-31T00:42:33;7.65;;;1.55;;
48522;SDS011;34315;50.150;11.070;2023-03-31T00:47:43;5.90;;;2.00;;
48522;SDS011;34315;50.150;11.070;2023-03-31T00:52:46;3.55;;;1.30;;
48522;SDS011;34315;50.150;11.070;2023-03-31T00:57:50;3.95;;;1.25;;
48522;SDS011;34315;50.150;11.070;2023-03-31T01:02:54;3.88;;;1.45;;
48522;SDS011;34315;50.150;11.070;2023-03-31T01:08:01;4.05;;;1.27;;
48522;SDS011;34315;50.150;11.070;2023-03-31T01:13:05;5.17;;;1.20;;
48522;SDS011;34315;50.150;11.070;2023-03-31T01:18:07;4.50;;;1.08;;
48522;SDS011;34315;50.150;11.070;2023-03-31T01:23:14;4.82;;;1.00;;
48522;SDS011;34315;50.150;11.070;2023-03-31T01:28:44;7.20;;;1.35;;
48522;SDS011;34315;50.150;11.070;2023-03-31T01:55:34;2.13;;;0.88;;
48522;SDS011;34315;50.150;11.070;2023-03-31T02:00:39;6.80;;;1.40;;
48522;SDS011;34315;50.150;11.070;2023-03-31T02:10:45;5.78;;;1.40;;
48522;SDS011;34315;50.150;11.070;2023-03-31T02:15:50;3.25;;;1.10;;
48522;SDS011;34315;50.150;11.070;2023-03-31T02:20:54;5.18;;;1.95;;
48522;SDS011;34315;50.150;11.070;2023-03-31T02:26:04;4.38;;;1.33;;
48522;SDS011;34315;50.150;11.070;2023-03-31T02:31:22;3.58;;;1.20;;
48522;SDS011;34315;50.150;11.070;2023-03-31T02:36:46;4.03;;;1.50;;
48522;SDS011;34315;50.150;11.070;2023-03-31T02:41:49;3.05;;;1.60;;
48522;SDS011;34315;50.150;11.070;2023-03-31T02:46:50;4.78;;;1.40;;
48522;SDS011;34315;50.150;11.070;2023-03-31T02:52:07;2.00;;;1.13;;
48522;SDS011;34315;50.150;11.070;2023-03-31T02:57:30;3.42;;;1.23;;
48522;SDS011;34315;50.150;11.070;2023-03-31T03:07:58;6.47;;;1.70;;
48522;SDS011;34315;50.150;11.070;2023-03-31T03:13:48;5.65;;;2.20;;
48522;SDS011;34315;50.150;11.070;2023-03-31T03:18:51;4.72;;;1.52;;
48522;SDS011;34315;50.150;11.070;2023-03-31T03:23:57;3.92;;;1.70;;
48522;SDS011;34315;50.150;11.070;2023-03-31T03:28:59;5.13;;;2.03;;
48522;SDS011;34315;50.150;11.070;2023-03-31T03:34:00;5.97;;;2.03;;
48522;SDS011;34315;50.150;11.070;2023-03-31T03:39:01;3.30;;;1.70;;
48522;SDS011;34315;50.150;11.070;2023-03-31T03:44:03;4.95;;;1.70;;
48522;SDS011;34315;50.150;11.070;2023-03-31T03:49:04;5.47;;;1.60;;
48522;SDS011;34315;50.150;11.070;2023-03-31T03:54:06;3.97;;;1.65;;
48522;SDS011;34315;50.150;11.070;2023-03-31T03:59:07;6.85;;;1.80;;
48522;SDS011;34315;50.150;11.070;2023-03-31T04:04:08;8.85;;;2.28;;
48522;SDS011;34315;50.150;11.070;2023-03-31T04:09:09;8.27;;;3.33;;
48522;SDS011;34315;50.150;11.070;2023-03-31T04:14:11;7.53;;;1.85;;
48522;SDS011;34315;50.150;11.070;2023-03-31T04:19:12;5.38;;;1.50;;
48522;SDS011;34315;50.150;11.070;2023-03-31T04:24:17;6.60;;;1.83;;
48522;SDS011;34315;50.150;11.070;2023-03-31T04:29:21;6.53;;;2.00;;
48522;SDS011;34315;50.150;11.070;2023-03-31T04:34:26;6.97;;;1.95;;
48522;SDS011;34315;50.150;11.070;2023-03-31T04:39:34;6.00;;;1.90;;
48522;SDS011;34315;50.150;11.070;2023-03-31T04:44:35;6.13;;;1.90;;
48522;SDS011;34315;50.150;11.070;2023-03-31T04:49:36;6.82;;;1.92;;
48522;SDS011;34315;50.150;11.070;2023-03-31T04:54:37;5.28;;;2.20;;
48522;SDS011;34315;50.150;11.070;2023-03-31T04:59:38;10.88;;;1.83;;
48522;SDS011;34315;50.150;11.070;2023-03-31T05:04:40;9.35;;;1.80;;
48522;SDS011;34315;50.150;11.070;2023-03-31T05:09:41;6.70;;;1.77;;
48522;SDS011;34315;50.150;11.070;2023-03-31T05:14:42;5.55;;;1.38;;
48522;SDS011;34315;50.150;11.070;2023-03-31T05:19:43;5.35;;;1.75;;
48522;SDS011;34315;50.150;11.070;2023-03-31T05:24:45;9.02;;;1.90;;
48522;SDS011;34315;50.150;11.070;2023-03-31T05:29:46;6.95;;;1.90;;
48522;SDS011;34315;50.150;11.070;2023-03-31T05:34:47;6.28;;;1.92;;
48522;SDS011;34315;50.150;11.070;2023-03-31T05:39:49;4.43;;;1.60;;
48522;SDS011;34315;50.150;11.070;2023-03-31T05:44:51;24.05;;;2.78;;
48522;SDS011;34315;50.150;11.070;2023-03-31T05:49:52;7.63;;;2.10;;
48522;SDS011;34315;50.150;11.070;2023-03-31T05:54:53;6.50;;;1.45;;
48522;SDS011;34315;50.150;11.070;2023-03-31T05:59:54;7.07;;;1.70;;
48522;SDS011;34315;50.150;11.070;2023-03-31T06:04:55;4.75;;;1.65;;
48522;SDS011;34315;50.150;11.070;2023-03-31T06:09:57;5.88;;;1.83;;
48522;SDS011;34315;50.150;11.070;2023-03-31T06:14:58;3.50;;;1.70;;
48522;SDS011;34315;50.150;11.070;2023-03-31T06:19:59;6.32;;;1.50;;
48522;SDS011;34315;50.150;11.070;2023-03-31T06:25:00;5.55;;;1.50;;
48522;SDS011;34315;50.150;11.070;2023-03-31T06:30:02;6.95;;;1.70;;
48522;SDS011;34315;50.150;11.070;2023-03-31T06:35:03;7.15;;;1.80;;
48522;SDS011;34315;50.150;11.070;2023-03-31T06:40:04;5.95;;;1.73;;
48522;SDS011;34315;50.150;11.070;2023-03-31T06:45:06;7.22;;;1.90;;
48522;SDS011;34315;50.150;11.070;2023-03-31T06:50:08;5.65;;;2.08;;
48522;SDS011;34315;50.150;11.070;2023-03-31T06:55:09;9.30;;;2.80;;
48522;SDS011;34315;50.150;11.070;2023-03-31T07:00:12;7.45;;;2.80;;
48522;SDS011;34315;50.150;11.070;2023-03-31T07:05:14;9.38;;;2.38;;
48522;SDS011;34315;50.150;11.070;2023-03-31T07:10:15;6.47;;;2.22;;
48522;SDS011;34315;50.150;11.070;2023-03-31T07:15:16;7.95;;;2.22;;
48522;SDS011;34315;50.150;11.070;2023-03-31T07:20:18;5.47;;;1.77;;
48522;SDS011;34315;50.150;11.070;2023-03-31T07:25:19;8.50;;;1.80;;
48522;SDS011;34315;50.150;11.070;2023-03-31T07:30:21;5.05;;;2.20;;
48522;SDS011;34315;50.150;11.070;2023-03-31T07:35:22;6.43;;;2.03;;
48522;SDS011;34315;50.150;11.070;2023-03-31T07:40:25;5.88;;;2.15;;
48522;SDS011;34315;50.150;11.070;2023-03-31T07:45:27;5.85;;;2.28;;
48522;SDS011;34315;50.150;11.070;2023-03-31T07:50:28;9.27;;;2.70;;
48522;SDS011;34315;50.150;11.070;2023-03-31T07:55:32;7.38;;;2.30;;
48522;SDS011;34315;50.150;11.070;2023-03-31T08:00:33;6.00;;;2.20;;
48522;SDS011;34315;50.150;11.070;2023-03-31T08:05:34;6.82;;;2.42;;
48522;SDS011;34315;50.150;11.070;2023-03-31T08:10:35;7.78;;;2.28;;
48522;SDS011;34315;50.150;11.070;2023-03-31T08:15:36;5.13;;;1.80;;
48522;SDS011;34315;50.150;11.070;2023-03-31T08:20:37;5.70;;;2.08;;
48522;SDS011;34315;50.150;11.070;2023-03-31T08:25:39;5.18;;;2.17;;
48522;SDS011;34315;50.150;11.070;2023-03-31T08:30:40;5.15;;;2.20;;
48522;SDS011;34315;50.150;11.070;2023-03-31T08:35:41;9.15;;;2.53;;
48522;SDS011;34315;50.150;11.070;2023-03-31T08:40:42;7.30;;;2.55;;
48522;SDS011;34315;50.150;11.070;2023-03-31T08:45:45;6.38;;;2.42;;
48522;SDS011;34315;50.150;11.070;2023-03-31T08:50:48;7.00;;;2.53;;
48522;SDS011;34315;50.150;11.070;2023-03-31T08:55:52;6.35;;;2.58;;
48522;SDS011;34315;50.150;11.070;2023-03-31T09:00:58;7.55;;;2.33;;
48522;SDS011;34315;50.150;11.070;2023-03-31T09:06:09;8.35;;;3.00;;
48522;SDS011;34315;50.150;11.070;2023-03-31T09:16:43;3.53;;;2.25;;
48522;SDS011;34315;50.150;11.070;2023-03-31T09:22:13;7.22;;;2.92;;
48522;SDS011;34315;50.150;11.070;2023-03-31T09:27:17;6.65;;;2.80;;
48522;SDS011;34315;50.150;11.070;2023-03-31T09:32:20;7.55;;;2.90;;
48522;SDS011;34315;50.150;11.070;2023-03-31T09:37:25;6.93;;;2.92;;
48522;SDS011;34315;50.150;11.070;2023-03-31T09:42:28;5.60;;;2.53;;
48522;SDS011;34315;50.150;11.070;2023-03-31T09:47:39;5.80;;;2.58;;
48522;SDS011;34315;50.150;11.070;2023-03-31T09:52:43;7.63;;;2.80;;
48522;SDS011;34315;50.150;11.070;2023-03-31T09:57:47;5.47;;;2.47;;
48522;SDS011;34315;50.150;11.070;2023-03-31T10:02:51;5.18;;;2.55;;
48522;SDS011;34315;50.150;11.070;2023-03-31T10:13:19;7.95;;;2.85;;
48522;SDS011;34315;50.150;11.070;2023-03-31T10:18:30;7.13;;;3.25;;
48522;SDS011;34315;50.150;11.070;2023-03-31T10:23:33;6.50;;;3.17;;
48522;SDS011;34315;50.150;11.070;2023-03-31T10:28:35;6.78;;;3.42;;
48522;SDS011;34315;50.150;11.070;2023-03-31T10:33:39;7.07;;;3.38;;
48522;SDS011;34315;50.150;11.070;2023-03-31T10:38:44;8.25;;;3.05;;
48522;SDS011;34315;50.150;11.070;2023-03-31T10:43:47;6.28;;;2.42;;
48522;SDS011;34315;50.150;11.070;2023-03-31T10:48:53;4.13;;;1.75;;
48522;SDS011;34315;50.150;11.070;2023-03-31T10:53:55;3.15;;;1.05;;
48522;SDS011;34315;50.150;11.070;2023-03-31T11:04:56;2.63;;;1.48;;
48522;SDS011;34315;50.150;11.070;2023-03-31T11:10:27;2.85;;;1.10;;
48522;SDS011;34315;50.150;11.070;2023-03-31T11:15:42;1.88;;;1.15;;
48522;SDS011;34315;50.150;11.070;2023-03-31T11:32:15;4.97;;;1.92;;
48522;SDS011;34315;50.150;11.070;2023-03-31T11:42:45;3.22;;;1.45;;
48522;SDS011;34315;50.150;11.070;2023-03-31T11:47:53;3.75;;;1.02;;
48522;SDS011;34315;50.150;11.070;2023-03-31T11:53:14;1.52;;;0.90;;
48522;SDS011;34315;50.150;11.070;2023-03-31T11:58:20;4.50;;;1.33;;
48522;SDS011;34315;50.150;11.070;2023-03-31T12:15:02;2.88;;;0.88;;
48522;SDS011;34315;50.150;11.070;2023-03-31T12:20:20;0.77;;;0.70;;
48522;SDS011;34315;50.150;11.070;2023-03-31T12:25:29;4.43;;;0.90;;
48522;SDS011;34315;50.150;11.070;2023-03-31T12:30:37;3.47;;;1.20;;
48522;SDS011;34315;50.150;11.070;2023-03-31T13:12:27;4.95;;;1.40;;
48522;SDS011;34315;50.150;11.070;2023-03-31T13:17:31;5.07;;;1.23;;
48522;SDS011;34315;50.150;11.070;2023-03-31T13:22:34;5.22;;;1.40;;
48522;SDS011;34315;50.150;11.070;2023-03-31T13:27:36;5.25;;;1.42;;
48522;SDS011;34315;50.150;11.070;2023-03-31T13:32:39;5.20;;;1.30;;
48522;SDS011;34315;50.150;11.070;2023-03-31T13:38:43;2.50;;;0.90;;
48522;SDS011;34315;50.150;11.070;2023-03-31T14:10:24;2.83;;;0.80;;
48522;SDS011;34315;50.150;11.070;2023-03-31T14:15:27;5.80;;;1.30;;
48522;SDS011;34315;50.150;11.070;2023-03-31T14:21:12;3.75;;;1.05;;
48522;SDS011;34315;50.150;11.070;2023-03-31T14:26:10;5.05;;;1.08;;
48522;SDS011;34315;50.150;11.070;2023-03-31T14:31:24;2.90;;;0.88;;
48522;SDS011;34315;50.150;11.070;2023-03-31T14:36:34;2.20;;;0.90;;
48522;SDS011;34315;50.150;11.070;2023-03-31T14:41:39;5.15;;;1.55;;
48522;SDS011;34315;50.150;11.070;2023-03-31T14:46:41;6.70;;;1.08;;
48522;SDS011;34315;50.150;11.070;2023-03-31T14:51:43;4.13;;;1.25;;
48522;SDS011;34315;50.150;11.070;2023-03-31T14:56:46;4.22;;;1.23;;
48522;SDS011;34315;50.150;11.070;2023-03-31T15:06:51;6.05;;;1.23;;
48522;SDS011;34315;50.150;11.070;2023-03-31T15:11:54;4.18;;;1.25;;
48522;SDS011;34315;50.150;11.070;2023-03-31T15:16:57;3.45;;;1.10;;
48522;SDS011;34315;50.150;11.070;2023-03-31T15:27:29;5.03;;;1.52;;
48522;SDS011;34315;50.150;11.070;2023-03-31T15:32:41;4.53;;;1.38;;
48522;SDS011;34315;50.150;11.070;2023-03-31T15:37:43;3.60;;;1.30;;
48522;SDS011;34315;50.150;11.070;2023-03-31T15:42:44;5.90;;;1.70;;
48522;SDS011;34315;50.150;11.070;2023-03-31T15:47:50;2.78;;;1.25;;
48522;SDS011;34315;50.150;11.070;2023-03-31T15:52:52;5.03;;;1.48;;
48522;SDS011;34315;50.150;11.070;2023-03-31T15:57:59;6.47;;;2.05;;
48522;SDS011;34315;50.150;11.070;2023-03-31T16:03:01;9.25;;;2.88;;
48522;SDS011;34315;50.150;11.070;2023-03-31T16:08:04;5.88;;;1.48;;
48522;SDS011;34315;50.150;11.070;2023-03-31T16:13:11;6.30;;;1.40;;
48522;SDS011;34315;50.150;11.070;2023-03-31T16:18:23;7.00;;;1.80;;
48522;SDS011;34315;50.150;11.070;2023-03-31T16:23:29;2.97;;;1.40;;
48522;SDS011;34315;50.150;11.070;2023-03-31T16:28:36;4.07;;;1.08;;
48522;SDS011;34315;50.150;11.070;2023-03-31T16:33:51;6.18;;;2.13;;
48522;SDS011;34315;50.150;11.070;2023-03-31T16:38:53;4.30;;;1.55;;
48522;SDS011;34315;50.150;11.070;2023-03-31T16:43:55;3.30;;;1.40;;
48522;SDS011;34315;50.150;11.070;2023-03-31T16:48:56;1.83;;;1.20;;
48522;SDS011;34315;50.150;11.070;2023-03-31T16:53:57;3.33;;;1.50;;
48522;SDS011;34315;50.150;11.070;2023-03-31T16:58:58;1.73;;;1.00;;
48522;SDS011;34315;50.150;11.070;2023-03-31T17:04:00;2.17;;;0.95;;
48522;SDS011;34315;50.150;11.070;2023-03-31T17:09:02;5.13;;;1.50;;
48522;SDS011;34315;50.150;11.070;2023-03-31T17:14:03;1.75;;;1.10;;
48522;SDS011;34315;50.150;11.070;2023-03-31T17:19:05;4.25;;;1.90;;
48522;SDS011;34315;50.150;11.070;2023-03-31T17:24:06;3.65;;;1.67;;
48522;SDS011;34315;50.150;11.070;2023-03-31T17:29:07;4.97;;;2.05;;
48522;SDS011;34315;50.150;11.070;2023-03-31T17:34:08;5.53;;;1.95;;
48522;SDS011;34315;50.150;11.070;2023-03-31T17:39:10;5.15;;;1.92;;
48522;SDS011;34315;50.150;11.070;2023-03-31T17:44:12;4.32;;;1.35;;
48522;SDS011;34315;50.150;11.070;2023-03-31T17:49:14;3.72;;;1.63;;
48522;SDS011;34315;50.150;11.070;2023-03-31T17:54:15;0.90;;;0.80;;
48522;SDS011;34315;50.150;11.070;2023-03-31T17:59:17;3.45;;;0.98;;
48522;SDS011;34315;50.150;11.070;2023-03-31T18:04:18;2.05;;;1.05;;
48522;SDS011;34315;50.150;11.070;2023-03-31T18:09:19;2.03;;;0.98;;
48522;SDS011;34315;50.150;11.070;2023-03-31T18:14:20;3.75;;;1.20;;
48522;SDS011;34315;50.150;11.070;2023-03-31T18:19:22;3.35;;;1.30;;
48522;SDS011;34315;50.150;11.070;2023-03-31T18:24:23;5.72;;;1.67;;
48522;SDS011;34315;50.150;11.070;2023-03-31T18:29:25;5.10;;;1.60;;
48522;SDS011;34315;50.150;11.070;2023-03-31T18:34:26;9.05;;;2.20;;
48522;SDS011;34315;50.150;11.070;2023-03-31T18:39:27;9.57;;;2.70;;
48522;SDS011;34315;50.150;11.070;2023-03-31T18:44:28;14.30;;;3.45;;
48522;SDS011;34315;50.150;11.070;2023-03-31T18:49:29;4.20;;;1.30;;
48522;SDS011;34315;50.150;11.070;2023-03-31T18:54:31;4.90;;;1.80;;
48522;SDS011;34315;50.150;11.070;2023-03-31T18:59:32;3.38;;;1.38;;
48522;SDS011;34315;50.150;11.070;2023-03-31T19:04:33;6.75;;;1.98;;
48522;SDS011;34315;50.150;11.070;2023-03-31T19:09:34;2.85;;;1.45;;
48522;SDS011;34315;50.150;11.070;2023-03-31T19:14:36;4.05;;;1.63;;
48522;SDS011;34315;50.150;11.070;2023-03-31T19:19:37;8.90;;;2.63;;
48522;SDS011;34315;50.150;11.070;2023-03-31T19:24:38;4.50;;;2.00;;
48522;SDS011;34315;50.150;11.070;2023-03-31T19:29:39;4.60;;;1.33;;
48522;SDS011;34315;50.150;11.070;2023-03-31T19:34:40;4.05;;;1.30;;
48522;SDS011;34315;50.150;11.070;2023-03-31T19:39:42;3.63;;;1.35;;
48522;SDS011;34315;50.150;11.070;2023-03-31T19:44:43;3.47;;;1.30;;
48522;SDS011;34315;50.150;11.070;2023-03-31T19:49:45;3.13;;;1.42;;
48522;SDS011;34315;50.150;11.070;2023-03-31T19:54:46;5.45;;;1.60;;
48522;SDS011;34315;50.150;11.070;2023-03-31T19:59:47;3.05;;;1.58;;
48522;SDS011;34315;50.150;11.070;2023-03-31T20:04:48;6.68;;;1.60;;
48522;SDS011;34315;50.150;11.070;2023-03-31T20:09:49;9.50;;;1.83;;
48522;SDS011;34315;50.150;11.070;2023-03-31T20:14:51;4.85;;;1.60;;
48522;SDS011;34315;50.150;11.070;2023-03-31T20:19:52;6.45;;;1.88;;
48522;SDS011;34315;50.150;11.070;2023-03-31T20:24:53;4.25;;;1.58;;
48522;SDS011;34315;50.150;11.070;2023-03-31T20:29:54;7.07;;;1.73;;
48522;SDS011;34315;50.150;11.070;2023-03-31T20:34:55;7.90;;;1.90;;
48522;SDS011;34315;50.150;11.070;2023-03-31T20:39:57;5.15;;;1.75;;
48522;SDS011;34315;50.150;11.070;2023-03-31T20:44:58;4.43;;;1.45;;
48522;SDS011;34315;50.150;11.070;2023-03-31T20:50:00;4.22;;;1.20;;
48522;SDS011;34315;50.150;11.070;2023-03-31T20:55:01;4.55;;;1.23;;
48522;SDS011;34315;50.150;11.070;2023-03-31T21:00:02;3.50;;;1.17;;
48522;SDS011;34315;50.150;11.070;2023-03-31T21:05:05;4.65;;;1.30;;
48522;SDS011;34315;50.150;11.070;2023-03-31T21:10:06;3.38;;;0.90;;
48522;SDS011;34315;50.150;11.070;2023-03-31T21:15:07;3.97;;;1.08;;
48522;SDS011;34315;50.150;11.070;2023-03-31T21:20:09;2.13;;;0.80;;
48522;SDS011;34315;50.150;11.070;2023-03-31T21:25:10;5.57;;;0.93;;
48522;SDS011;34315;50.150;11.070;2023-03-31T21:30:12;2.35;;;0.80;;
48522;SDS011;34315;50.150;11.070;2023-03-31T21:35:13;3.10;;;1.20;;
48522;SDS011;34315;50.150;11.070;2023-03-31T21:40:14;4.60;;;0.93;;
48522;SDS011;34315;50.150;11.070;2023-03-31T21:45:16;3.20;;;0.80;;
48522;SDS011;34315;50.150;11.070;2023-03-31T21:50:17;5.25;;;1.83;;
48522;SDS011;34315;50.150;11.070;2023-03-31T21:55:18;3.45;;;0.80;;
48522;SDS011;34315;50.150;11.070;2023-03-31T22:00:19;3.45;;;1.17;;
48522;SDS011;34315;50.150;11.070;2023-03-31T22:05:21;3.88;;;0.95;;
48522;SDS011;34315;50.150;11.070;2023-03-31T22:10:22;3.95;;;1.10;;
48522;SDS011;34315;50.150;11.070;2023-03-31T22:15:23;3.35;;;0.68;;
48522;SDS011;34315;50.150;11.070;2023-03-31T22:20:24;2.90;;;0.90;;
48522;SDS011;34315;50.150;11.070;2023-03-31T22:25:25;4.78;;;0.85;;
48522;SDS011;34315;50.150;11.070;2023-03-31T22:30:26;2.42;;;0.80;;
48522;SDS011;34315;50.150;11.070;2023-03-31T22:35:27;4.03;;;1.08;;
48522;SDS011;34315;50.150;11.070;2023-03-31T22:40:28;5.25;;;1.52;;
48522;SDS011;34315;50.150;11.070;2023-03-31T22:45:29;10.73;;;2.28;;
48522;SDS011;34315;50.150;11.070;2023-03-31T22:50:31;3.55;;;1.20;;
48522;SDS011;34315;50.150;11.070;2023-03-31T22:55:32;4.60;;;1.10;;
48522;SDS011;34315;50.150;11.070;2023-03-31T23:00:33;1.90;;;0.70;;
48522;SDS011;34315;50.150;11.070;2023-03-31T23:05:34;3.75;;;0.98;;
48522;SDS011;34315;50.150;11.070;2023-03-31T23:10:35;1.63;;;0.80;;
48522;SDS011;34315;50.150;11.070;2023-03-31T23:15:37;3.10;;;1.15;;
48522;SDS011;34315;50.150;11.070;2023-03-31T23:20:38;2.35;;;0.88;;
48522;SDS011;34315;50.150;11.070;2023-03-31T23:25:39;6.70;;;1.05;;
48522;SDS011;34315;50.150;11.070;2023-03-31T23:30:40;3.47;;;0.80;;
48522;SDS011;34315;50.150;11.070;2023-03-31T23:35:41;3.10;;;0.88;;
48522;SDS011;34315;50.150;11.070;2023-03-31T23:40:43;3.25;;;0.73;;
48522;SDS011;34315;50.150;11.070;2023-03-31T23:45:46;2.83;;;0.85;;
48522;SDS011;34315;50.150;11.070;2023-03-31T23:50:47;3.10;;;0.82;;
48522;SDS011;34315;50.150;11.070;2023-03-31T23:55:55;4.35;;;0.95;;
